sensor_id;sensor_type;location;lat;lon;timestamp;pressure;altitude;pressure_sealevel;temperature;humidity
141;BME280;65;48.778;9.160;2024-03-06T00:01:23;98572.38;;;5.91;100.00
141;BME280;65;48.778;9.160;2024-03-06T00:04:08;98572.38;;;5.91;100.00
141;BME280;65;48.778;9.160;2024-03-06T00:06:54;98572.47;;;5.88;100.00
141;BME280;65;48.778;9.160;2024-03-06T00:09:40;98570.81;;;5.86;100.00
141;BME280;65;48.778;9.160;2024-03-06T00:12:26;98564.72;;;5.85;100.00
141;BME280;65;48.778;9.160;2024-03-06T00:15:12;98563.81;;;5.86;100.00
141;BME280;65;48.778;9.160;2024-03-06T00:17:58;98565.50;;;5.87;100.00
141;BME280;65;48.778;9.160;2024-03-06T00:20:44;98562.84;;;5.89;100.00
141;BME280;65;48.778;9.160;2024-03-06T00:23:30;98569.81;;;5.90;100.00
141;BME280;65;48.778;9.160;2024-03-06T00:26:16;98573.25;;;5.92;100.00
141;BME280;65;48.778;9.160;2024-03-06T00:29:02;98578.47;;;5.92;100.00
141;BME280;65;48.778;9.160;2024-03-06T00:31:47;98584.59;;;5.92;100.00
141;BME280;65;48.778;9.160;2024-03-06T00:34:33;98582.81;;;5.93;100.00
141;BME280;65;48.778;9.160;2024-03-06T00:37:19;98581.06;;;5.93;100.00
141;BME280;65;48.778;9.160;2024-03-06T00:40:05;98575.81;;;5.93;100.00
141;BME280;65;48.778;9.160;2024-03-06T00:42:51;98573.19;;;5.93;100.00
141;BME280;65;48.778;9.160;2024-03-06T00:45:37;98570.66;;;5.90;100.00
141;BME280;65;48.778;9.160;2024-03-06T00:48:23;98563.72;;;5.89;100.00
141;BME280;65;48.778;9.160;2024-03-06T00:51:08;98559.34;;;5.88;100.00
141;BME280;65;48.778;9.160;2024-03-06T00:53:54;98563.88;;;5.85;100.00
141;BME280;65;48.778;9.160;2024-03-06T00:56:40;98560.38;;;5.84;100.00
141;BME280;65;48.778;9.160;2024-03-06T00:59:26;98568.38;;;5.81;100.00
141;BME280;65;48.778;9.160;2024-03-06T01:02:12;98563.31;;;5.75;100.00
141;BME280;65;48.778;9.160;2024-03-06T01:04:57;98578.06;;;5.79;100.00
141;BME280;65;48.778;9.160;2024-03-06T01:07:43;98580.81;;;5.75;100.00
141;BME280;65;48.778;9.160;2024-03-06T01:10:29;98579.06;;;5.75;100.00
141;BME280;65;48.778;9.160;2024-03-06T01:13:15;98578.38;;;5.70;100.00
141;BME280;65;48.778;9.160;2024-03-06T01:16:00;98581.13;;;5.67;100.00
141;BME280;65;48.778;9.160;2024-03-06T01:18:46;98589.91;;;5.66;100.00
141;BME280;65;48.778;9.160;2024-03-06T01:21:32;98586.38;;;5.67;100.00
141;BME280;65;48.778;9.160;2024-03-06T01:24:19;98581.91;;;5.69;100.00
141;BME280;65;48.778;9.160;2024-03-06T01:27:05;98575.88;;;5.67;100.00
141;BME280;65;48.778;9.160;2024-03-06T01:29:51;98579.47;;;5.64;100.00
141;BME280;65;48.778;9.160;2024-03-06T01:32:37;98580.38;;;5.63;100.00
141;BME280;65;48.778;9.160;2024-03-06T01:35:24;98580.25;;;5.66;100.00
141;BME280;65;48.778;9.160;2024-03-06T01:38:10;98581.13;;;5.67;100.00
141;BME280;65;48.778;9.160;2024-03-06T01:40:55;98579.19;;;5.72;100.00
141;BME280;65;48.778;9.160;2024-03-06T01:43:41;98572.28;;;5.69;100.00
141;BME280;65;48.778;9.160;2024-03-06T01:46:27;98580.22;;;5.68;100.00
141;BME280;65;48.778;9.160;2024-03-06T01:49:14;98587.34;;;5.64;100.00
141;BME280;65;48.778;9.160;2024-03-06T01:52:01;98582.16;;;5.63;100.00
141;BME280;65;48.778;9.160;2024-03-06T01:54:48;98586.53;;;5.62;100.00
141;BME280;65;48.778;9.160;2024-03-06T01:57:35;98584.72;;;5.64;100.00
141;BME280;65;48.778;9.160;2024-03-06T02:00:22;98587.16;;;5.69;100.00
141;BME280;65;48.778;9.160;2024-03-06T02:03:08;98581.13;;;5.67;100.00
141;BME280;65;48.778;9.160;2024-03-06T02:05:54;98581.22;;;5.64;100.00
141;BME280;65;48.778;9.160;2024-03-06T02:08:41;98578.72;;;5.61;100.00
141;BME280;65;48.778;9.160;2024-03-06T02:11:26;98591.84;;;5.61;100.00
141;BME280;65;48.778;9.160;2024-03-06T02:14:13;98589.16;;;5.62;100.00
141;BME280;65;48.778;9.160;2024-03-06T02:16:59;98593.44;;;5.65;100.00
141;BME280;65;48.778;9.160;2024-03-06T02:19:45;98588.13;;;5.66;100.00
141;BME280;65;48.778;9.160;2024-03-06T02:22:32;98590.53;;;5.72;100.00
141;BME280;65;48.778;9.160;2024-03-06T02:25:18;98595.50;;;5.80;100.00
141;BME280;65;48.778;9.160;2024-03-06T02:28:05;98598.81;;;5.85;100.00
141;BME280;65;48.778;9.160;2024-03-06T02:30:51;98592.56;;;5.89;100.00
141;BME280;65;48.778;9.160;2024-03-06T02:33:37;98587.94;;;5.96;100.00
141;BME280;65;48.778;9.160;2024-03-06T02:36:23;98589.06;;;5.89;100.00
141;BME280;65;48.778;9.160;2024-03-06T02:39:08;98587.66;;;5.80;100.00
141;BME280;65;48.778;9.160;2024-03-06T02:41:54;98591.19;;;5.79;100.00
141;BME280;65;48.778;9.160;2024-03-06T02:44:40;98593.81;;;5.79;100.00
141;BME280;65;48.778;9.160;2024-03-06T02:47:25;98592.03;;;5.80;100.00
141;BME280;65;48.778;9.160;2024-03-06T02:50:11;98590.34;;;5.77;100.00
141;BME280;65;48.778;9.160;2024-03-06T02:52:57;98587.72;;;5.77;100.00
141;BME280;65;48.778;9.160;2024-03-06T02:55:43;98596.75;;;5.70;100.00
141;BME280;65;48.778;9.160;2024-03-06T02:58:29;98595.09;;;5.67;100.00
141;BME280;65;48.778;9.160;2024-03-06T03:01:17;98599.69;;;5.61;100.00
141;BME280;65;48.778;9.160;2024-03-06T03:04:02;98601.53;;;5.59;100.00
141;BME280;65;48.778;9.160;2024-03-06T03:06:48;98601.53;;;5.59;100.00
141;BME280;65;48.778;9.160;2024-03-06T03:09:34;98594.34;;;5.64;100.00
141;BME280;65;48.778;9.160;2024-03-06T03:12:21;98599.59;;;5.64;100.00
141;BME280;65;48.778;9.160;2024-03-06T03:15:08;98597.81;;;5.64;100.00
141;BME280;65;48.778;9.160;2024-03-06T03:17:54;98601.41;;;5.62;100.00
141;BME280;65;48.778;9.160;2024-03-06T03:20:39;98604.19;;;5.57;100.00
141;BME280;65;48.778;9.160;2024-03-06T03:23:25;98607.72;;;5.56;100.00
141;BME280;65;48.778;9.160;2024-03-06T03:26:11;98598.78;;;5.62;100.00
141;BME280;65;48.778;9.160;2024-03-06T03:28:57;98611.16;;;5.58;100.00
141;BME280;65;48.778;9.160;2024-03-06T03:31:42;98613.88;;;5.55;100.00
141;BME280;65;48.778;9.160;2024-03-06T03:34:28;98607.09;;;5.50;100.00
141;BME280;65;48.778;9.160;2024-03-06T03:37:14;98600.94;;;5.51;100.00
141;BME280;65;48.778;9.160;2024-03-06T03:40:00;98609.72;;;5.50;100.00
141;BME280;65;48.778;9.160;2024-03-06T03:42:46;98610.56;;;5.50;100.00
141;BME280;65;48.778;9.160;2024-03-06T03:45:32;98615.88;;;5.49;100.00
141;BME280;65;48.778;9.160;2024-03-06T03:48:19;98612.34;;;5.50;100.00
141;BME280;65;48.778;9.160;2024-03-06T03:51:05;98618.34;;;5.53;100.00
141;BME280;65;48.778;9.160;2024-03-06T03:53:53;98626.25;;;5.52;100.00
141;BME280;65;48.778;9.160;2024-03-06T03:56:39;98627.09;;;5.52;100.00
141;BME280;65;48.778;9.160;2024-03-06T03:59:25;98630.59;;;5.53;100.00
141;BME280;65;48.778;9.160;2024-03-06T04:02:11;98629.56;;;5.57;100.00
141;BME280;65;48.778;9.160;2024-03-06T04:04:57;98628.06;;;5.50;100.00
141;BME280;65;48.778;9.160;2024-03-06T04:07:42;98627.31;;;5.46;100.00
141;BME280;65;48.778;9.160;2024-03-06T04:10:28;98625.78;;;5.40;100.00
141;BME280;65;48.778;9.160;2024-03-06T04:13:15;98632.69;;;5.43;100.00
141;BME280;65;48.778;9.160;2024-03-06T04:16:01;98636.38;;;5.37;100.00
141;BME280;65;48.778;9.160;2024-03-06T04:18:48;98630.34;;;5.35;100.00
141;BME280;65;48.778;9.160;2024-03-06T04:21:33;98640.06;;;5.32;100.00
141;BME280;65;48.778;9.160;2024-03-06T04:24:19;98641.09;;;5.28;100.00
141;BME280;65;48.778;9.160;2024-03-06T04:27:26;98636.81;;;5.25;100.00
141;BME280;65;48.778;9.160;2024-03-06T04:30:12;98640.34;;;5.24;100.00
141;BME280;65;48.778;9.160;2024-03-06T04:32:58;98636.84;;;5.24;100.00
141;BME280;65;48.778;9.160;2024-03-06T04:35:44;98644.72;;;5.24;100.00
141;BME280;65;48.778;9.160;2024-03-06T04:38:29;98646.59;;;5.20;100.00
141;BME280;65;48.778;9.160;2024-03-06T04:41:18;98655.31;;;5.19;100.00
141;BME280;65;48.778;9.160;2024-03-06T04:44:04;98654.47;;;5.19;100.00
141;BME280;65;48.778;9.160;2024-03-06T04:46:50;98652.00;;;5.14;100.00
141;BME280;65;48.778;9.160;2024-03-06T04:49:36;98659.88;;;5.14;100.00
141;BME280;65;48.778;9.160;2024-03-06T04:52:22;98657.09;;;5.19;100.00
141;BME280;65;48.778;9.160;2024-03-06T04:55:08;98659.69;;;5.20;100.00
141;BME280;65;48.778;9.160;2024-03-06T04:57:58;98661.44;;;5.20;100.00
141;BME280;65;48.778;9.160;2024-03-06T05:00:43;98673.66;;;5.21;100.00
141;BME280;65;48.778;9.160;2024-03-06T05:03:29;98671.03;;;5.21;100.00
141;BME280;65;48.778;9.160;2024-03-06T05:06:15;98674.56;;;5.18;100.00
141;BME280;65;48.778;9.160;2024-03-06T05:09:01;98674.78;;;5.12;100.00
141;BME280;65;48.778;9.160;2024-03-06T05:11:46;98678.38;;;5.09;100.00
141;BME280;65;48.778;9.160;2024-03-06T05:14:36;98684.63;;;5.05;100.00
141;BME280;65;48.778;9.160;2024-03-06T05:17:22;98687.38;;;5.01;100.00
141;BME280;65;48.778;9.160;2024-03-06T05:20:09;98683.16;;;4.97;100.00
141;BME280;65;48.778;9.160;2024-03-06T05:22:54;98690.09;;;4.98;100.00
141;BME280;65;48.778;9.160;2024-03-06T05:25:40;98685.97;;;4.91;100.00
141;BME280;65;48.778;9.160;2024-03-06T05:28:26;98686.84;;;4.91;100.00
141;BME280;65;48.778;9.160;2024-03-06T05:31:17;98685.13;;;4.90;100.00
141;BME280;65;48.778;9.160;2024-03-06T05:34:05;98686.84;;;4.91;100.00
141;BME280;65;48.778;9.160;2024-03-06T05:36:51;98687.75;;;4.90;100.00
141;BME280;65;48.778;9.160;2024-03-06T05:39:37;98692.13;;;4.90;100.00
141;BME280;65;48.778;9.160;2024-03-06T05:42:23;98693.84;;;4.91;100.00
141;BME280;65;48.778;9.160;2024-03-06T05:45:08;98698.16;;;4.92;100.00
141;BME280;65;48.778;9.160;2024-03-06T05:47:57;98701.53;;;4.95;100.00
141;BME280;65;48.778;9.160;2024-03-06T05:50:43;98692.94;;;4.92;100.00
141;BME280;65;48.778;9.160;2024-03-06T05:53:30;98705.78;;;4.99;100.00
141;BME280;65;48.778;9.160;2024-03-06T05:56:17;98701.50;;;4.97;100.00
141;BME280;65;48.778;9.160;2024-03-06T05:59:03;98710.31;;;4.94;100.00
141;BME280;65;48.778;9.160;2024-03-06T06:01:50;98712.91;;;4.94;100.00
141;BME280;65;48.778;9.160;2024-03-06T06:04:35;98712.91;;;4.94;100.00
141;BME280;65;48.778;9.160;2024-03-06T06:07:21;98712.16;;;4.91;100.00
141;BME280;65;48.778;9.160;2024-03-06T06:10:07;98715.59;;;4.93;100.00
141;BME280;65;48.778;9.160;2024-03-06T06:12:55;98720.72;;;4.96;100.00
141;BME280;65;48.778;9.160;2024-03-06T06:15:41;98728.53;;;4.97;100.00
141;BME280;65;48.778;9.160;2024-03-06T06:18:27;98734.53;;;5.01;100.00
141;BME280;65;48.778;9.160;2024-03-06T06:21:12;98736.34;;;4.99;100.00
141;BME280;65;48.778;9.160;2024-03-06T06:23:58;98746.78;;;5.00;100.00
141;BME280;65;48.778;9.160;2024-03-06T06:26:44;98751.06;;;5.03;100.00
141;BME280;65;48.778;9.160;2024-03-06T06:29:30;98753.69;;;5.03;100.00
141;BME280;65;48.778;9.160;2024-03-06T06:32:16;98751.06;;;5.03;100.00
141;BME280;65;48.778;9.160;2024-03-06T06:35:02;98753.63;;;5.04;100.00
141;BME280;65;48.778;9.160;2024-03-06T06:37:48;98758.72;;;5.09;100.00
141;BME280;65;48.778;9.160;2024-03-06T06:40:34;98763.91;;;5.11;100.00
141;BME280;65;48.778;9.160;2024-03-06T06:43:20;98766.53;;;5.11;100.00
141;BME280;65;48.778;9.160;2024-03-06T06:46:05;98774.44;;;5.09;100.00
141;BME280;65;48.778;9.160;2024-03-06T06:48:51;98759.47;;;5.13;100.00
141;BME280;65;48.778;9.160;2024-03-06T06:51:37;98770.81;;;5.13;100.00
141;BME280;65;48.778;9.160;2024-03-06T06:54:23;98762.84;;;5.16;100.00
141;BME280;65;48.778;9.160;2024-03-06T06:57:09;98768.84;;;5.20;100.00
141;BME280;65;48.778;9.160;2024-03-06T06:59:55;98769.59;;;5.25;100.00
141;BME280;65;48.778;9.160;2024-03-06T07:02:40;98777.09;;;5.35;100.00
141;BME280;65;48.778;9.160;2024-03-06T07:05:26;98771.94;;;5.32;100.00
141;BME280;65;48.778;9.160;2024-03-06T07:08:12;98775.59;;;5.28;100.00
141;BME280;65;48.778;9.160;2024-03-06T07:10:58;98772.81;;;5.33;100.00
141;BME280;65;48.778;9.160;2024-03-06T07:13:44;98768.47;;;5.32;100.00
141;BME280;65;48.778;9.160;2024-03-06T07:16:30;98771.91;;;5.34;100.00
141;BME280;65;48.778;9.160;2024-03-06T07:19:16;98776.91;;;5.42;100.00
141;BME280;65;48.778;9.160;2024-03-06T07:22:02;98781.28;;;5.41;100.00
141;BME280;65;48.778;9.160;2024-03-06T07:24:48;98779.50;;;5.42;100.00
141;BME280;65;48.778;9.160;2024-03-06T07:27:34;98776.78;;;5.45;100.00
141;BME280;65;48.778;9.160;2024-03-06T07:30:20;98791.50;;;5.49;100.00
141;BME280;65;48.778;9.160;2024-03-06T07:33:07;98788.69;;;5.55;100.00
141;BME280;65;48.778;9.160;2024-03-06T07:35:54;98792.09;;;5.57;100.00
141;BME280;65;48.778;9.160;2024-03-06T07:38:40;98797.44;;;5.54;100.00
141;BME280;65;48.778;9.160;2024-03-06T07:41:27;98799.06;;;5.58;100.00
141;BME280;65;48.778;9.160;2024-03-06T07:44:13;98795.63;;;5.56;100.00
141;BME280;65;48.778;9.160;2024-03-06T07:46:59;98795.47;;;5.60;100.00
141;BME280;65;48.778;9.160;2024-03-06T07:49:45;98796.94;;;5.69;100.00
141;BME280;65;48.778;9.160;2024-03-06T07:52:31;98810.97;;;5.68;100.00
141;BME280;65;48.778;9.160;2024-03-06T07:55:17;98806.34;;;5.75;100.00
141;BME280;65;48.778;9.160;2024-03-06T07:58:04;98808.06;;;5.76;100.00
141;BME280;65;48.778;9.160;2024-03-06T08:00:52;98813.47;;;5.71;100.00
141;BME280;65;48.778;9.160;2024-03-06T08:03:41;98815.03;;;5.77;100.00
141;BME280;65;48.778;9.160;2024-03-06T08:06:28;98820.94;;;5.83;100.00
141;BME280;65;48.778;9.160;2024-03-06T08:09:14;98822.16;;;5.73;100.00
141;BME280;65;48.778;9.160;2024-03-06T08:12:02;98822.09;;;5.75;100.00
141;BME280;65;48.778;9.160;2024-03-06T08:14:48;98822.44;;;5.64;100.00
141;BME280;65;48.778;9.160;2024-03-06T08:17:33;98823.31;;;5.64;100.00
141;BME280;65;48.778;9.160;2024-03-06T08:20:19;98827.44;;;5.71;100.00
141;BME280;65;48.778;9.160;2024-03-06T08:23:05;98821.41;;;5.69;100.00
141;BME280;65;48.778;9.160;2024-03-06T08:25:51;98823.06;;;5.72;100.00
141;BME280;65;48.778;9.160;2024-03-06T08:28:38;98816.75;;;5.78;100.00
141;BME280;65;48.778;9.160;2024-03-06T08:31:23;98827.91;;;5.84;100.00
141;BME280;65;48.778;9.160;2024-03-06T08:34:10;98832.88;;;5.93;100.00
141;BME280;65;48.778;9.160;2024-03-06T08:36:56;98833.69;;;5.95;100.00
141;BME280;65;48.778;9.160;2024-03-06T08:39:42;98836.34;;;5.94;100.00
141;BME280;65;48.778;9.160;2024-03-06T08:42:28;98835.78;;;6.11;100.00
141;BME280;65;48.778;9.160;2024-03-06T08:45:14;98844.97;;;6.22;100.00
141;BME280;65;48.778;9.160;2024-03-06T08:48:00;98838.25;;;6.40;100.00
141;BME280;65;48.778;9.160;2024-03-06T08:50:46;98849.66;;;6.39;100.00
141;BME280;65;48.778;9.160;2024-03-06T08:53:32;98844.25;;;6.44;100.00
141;BME280;65;48.778;9.160;2024-03-06T08:56:18;98852.47;;;6.33;100.00
141;BME280;65;48.778;9.160;2024-03-06T08:59:04;98849.16;;;6.28;100.00
141;BME280;65;48.778;9.160;2024-03-06T09:01:53;98851.25;;;6.43;100.00
141;BME280;65;48.778;9.160;2024-03-06T09:04:41;98850.13;;;6.50;100.00
141;BME280;65;48.778;9.160;2024-03-06T09:07:27;98853.31;;;6.58;100.00
141;BME280;65;48.778;9.160;2024-03-06T09:10:13;98856.31;;;6.73;100.00
141;BME280;65;48.778;9.160;2024-03-06T09:12:59;98856.63;;;6.87;100.00
141;BME280;65;48.778;9.160;2024-03-06T09:15:45;98854.41;;;6.76;100.00
141;BME280;65;48.778;9.160;2024-03-06T09:18:30;98858.97;;;6.71;100.00
141;BME280;65;48.778;9.160;2024-03-06T09:21:16;98869.09;;;6.82;100.00
141;BME280;65;48.778;9.160;2024-03-06T09:24:02;98862.59;;;6.69;100.00
141;BME280;65;48.778;9.160;2024-03-06T09:26:48;98861.66;;;6.70;100.00
141;BME280;65;48.778;9.160;2024-03-06T09:29:34;98866.69;;;6.52;100.00
141;BME280;65;48.778;9.160;2024-03-06T09:32:20;98869.94;;;6.59;100.00
141;BME280;65;48.778;9.160;2024-03-06T09:35:07;98868.34;;;6.55;100.00
141;BME280;65;48.778;9.160;2024-03-06T09:37:53;98875.59;;;6.48;100.00
141;BME280;65;48.778;9.160;2024-03-06T09:40:39;98873.94;;;6.46;100.00
141;BME280;65;48.778;9.160;2024-03-06T09:43:28;98873.22;;;6.41;100.00
141;BME280;65;48.778;9.160;2024-03-06T09:46:14;98875.59;;;6.48;100.00
141;BME280;65;48.778;9.160;2024-03-06T09:49:00;98877.50;;;6.43;100.00
141;BME280;65;48.778;9.160;2024-03-06T09:51:47;98877.00;;;6.32;100.00
141;BME280;65;48.778;9.160;2024-03-06T09:54:38;98884.19;;;6.27;100.00
141;BME280;65;48.778;9.160;2024-03-06T09:57:25;98877.50;;;6.18;100.00
141;BME280;65;48.778;9.160;2024-03-06T10:00:11;98877.75;;;6.11;100.00
141;BME280;65;48.778;9.160;2024-03-06T10:02:58;98879.72;;;6.04;100.00
141;BME280;65;48.778;9.160;2024-03-06T10:05:47;98880.38;;;6.11;100.00
141;BME280;65;48.778;9.160;2024-03-06T10:08:33;98884.50;;;6.18;100.00
141;BME280;65;48.778;9.160;2024-03-06T10:11:19;98886.00;;;6.25;100.00
141;BME280;65;48.778;9.160;2024-03-06T10:14:05;98880.97;;;6.19;100.00
141;BME280;65;48.778;9.160;2024-03-06T10:16:54;98885.75;;;6.32;100.00
141;BME280;65;48.778;9.160;2024-03-06T10:19:41;98885.78;;;6.31;100.00
141;BME280;65;48.778;9.160;2024-03-06T10:22:31;98886.59;;;6.33;100.00
141;BME280;65;48.778;9.160;2024-03-06T10:25:26;98887.97;;;6.45;100.00
141;BME280;65;48.778;9.160;2024-03-06T10:28:13;98878.91;;;6.53;100.00
141;BME280;65;48.778;9.160;2024-03-06T10:31:04;98884.84;;;6.58;100.00
141;BME280;65;48.778;9.160;2024-03-06T10:33:54;98883.06;;;6.59;100.00
141;BME280;65;48.778;9.160;2024-03-06T10:36:41;98890.28;;;6.77;100.00
141;BME280;65;48.778;9.160;2024-03-06T10:39:30;98887.06;;;6.94;100.00
141;BME280;65;48.778;9.160;2024-03-06T10:42:19;98890.53;;;7.18;100.00
141;BME280;65;48.778;9.160;2024-03-06T10:45:12;98887.59;;;7.47;100.00
141;BME280;65;48.778;9.160;2024-03-06T10:47:58;98893.22;;;7.38;100.00
141;BME280;65;48.778;9.160;2024-03-06T10:50:47;98894.47;;;7.51;100.00
141;BME280;65;48.778;9.160;2024-03-06T10:53:41;98892.22;;;7.64;100.00
141;BME280;65;48.778;9.160;2024-03-06T10:56:28;98883.91;;;7.53;100.00
141;BME280;65;48.778;9.160;2024-03-06T10:59:15;98886.97;;;7.64;100.00
141;BME280;65;48.778;9.160;2024-03-06T11:02:03;98894.38;;;7.54;100.00
141;BME280;65;48.778;9.160;2024-03-06T11:04:52;98905.53;;;7.38;100.00
141;BME280;65;48.778;9.160;2024-03-06T11:07:39;98904.06;;;7.30;100.00
141;BME280;65;48.778;9.160;2024-03-06T11:10:32;98903.13;;;7.32;100.00
141;BME280;65;48.778;9.160;2024-03-06T11:13:25;98901.84;;;7.20;100.00
141;BME280;65;48.778;9.160;2024-03-06T11:16:14;98906.53;;;7.12;100.00
141;BME280;65;48.778;9.160;2024-03-06T11:19:07;98904.16;;;6.81;100.00
141;BME280;65;48.778;9.160;2024-03-06T11:21:53;98906.03;;;6.77;100.00
141;BME280;65;48.778;9.160;2024-03-06T11:24:39;98903.13;;;6.85;100.00
141;BME280;65;48.778;9.160;2024-03-06T11:27:26;98900.84;;;6.76;100.00
141;BME280;65;48.778;9.160;2024-03-06T11:30:18;98900.91;;;6.74;100.00
141;BME280;65;48.778;9.160;2024-03-06T11:33:06;98905.34;;;6.72;100.00
141;BME280;65;48.778;9.160;2024-03-06T11:39:06;98906.81;;;6.56;100.00
141;BME280;65;48.778;9.160;2024-03-06T11:41:52;98900.59;;;6.58;100.00
141;BME280;65;48.778;9.160;2024-03-06T11:44:52;98910.69;;;6.46;100.00
141;BME280;65;48.778;9.160;2024-03-06T11:47:56;98902.00;;;6.44;100.00
141;BME280;65;48.778;9.160;2024-03-06T11:50:44;98914.22;;;6.45;100.00
141;BME280;65;48.778;9.160;2024-03-06T11:53:33;98911.00;;;6.37;100.00
141;BME280;65;48.778;9.160;2024-03-06T11:56:19;98906.56;;;6.39;100.00
141;BME280;65;48.778;9.160;2024-03-06T11:59:06;98905.44;;;6.46;100.00
141;BME280;65;48.778;9.160;2024-03-06T12:01:56;98904.25;;;6.54;100.00
141;BME280;65;48.778;9.160;2024-03-06T12:04:42;98902.44;;;6.56;100.00
141;BME280;65;48.778;9.160;2024-03-06T12:07:28;98896.44;;;6.53;100.00
141;BME280;65;48.778;9.160;2024-03-06T12:10:14;98905.47;;;6.44;100.00
141;BME280;65;48.778;9.160;2024-03-06T12:12:59;98908.31;;;6.38;100.00
141;BME280;65;48.778;9.160;2024-03-06T12:15:45;98902.28;;;6.34;100.00
141;BME280;65;48.778;9.160;2024-03-06T12:18:31;98905.84;;;6.33;100.00
141;BME280;65;48.778;9.160;2024-03-06T12:21:19;98900.41;;;6.40;100.00
141;BME280;65;48.778;9.160;2024-03-06T12:24:05;98905.66;;;6.40;100.00
141;BME280;65;48.778;9.160;2024-03-06T12:27:05;98903.25;;;6.32;100.00
141;BME280;65;48.778;9.160;2024-03-06T12:29:52;98905.88;;;6.32;100.00
141;BME280;65;48.778;9.160;2024-03-06T12:32:39;98905.78;;;6.35;100.00
141;BME280;65;48.778;9.160;2024-03-06T12:35:28;98911.19;;;6.30;100.00
141;BME280;65;48.778;9.160;2024-03-06T12:38:15;98909.38;;;6.32;100.00
141;BME280;65;48.778;9.160;2024-03-06T12:41:01;98901.44;;;6.34;100.00
141;BME280;65;48.778;9.160;2024-03-06T12:43:46;98901.44;;;6.34;100.00
141;BME280;65;48.778;9.160;2024-03-06T12:46:32;98907.66;;;6.31;100.00
141;BME280;65;48.778;9.160;2024-03-06T12:49:18;98912.94;;;6.30;100.00
141;BME280;65;48.778;9.160;2024-03-06T12:52:04;98907.81;;;6.27;100.00
141;BME280;65;48.778;9.160;2024-03-06T12:54:50;98904.97;;;6.33;100.00
141;BME280;65;48.778;9.160;2024-03-06T12:57:36;98903.06;;;6.38;100.00
141;BME280;65;48.778;9.160;2024-03-06T13:00:22;98902.16;;;6.39;100.00
141;BME280;65;48.778;9.160;2024-03-06T13:03:08;98895.03;;;6.43;100.00
141;BME280;65;48.778;9.160;2024-03-06T13:05:54;98900.03;;;6.50;100.00
141;BME280;65;48.778;9.160;2024-03-06T13:08:39;98902.38;;;6.58;100.00
141;BME280;65;48.778;9.160;2024-03-06T13:11:25;98896.31;;;6.56;100.00
141;BME280;65;48.778;9.160;2024-03-06T13:14:11;98899.00;;;6.54;100.00
141;BME280;65;48.778;9.160;2024-03-06T13:16:57;98892.25;;;6.47;100.00
141;BME280;65;48.778;9.160;2024-03-06T13:19:43;98903.81;;;6.42;100.00
141;BME280;65;48.778;9.160;2024-03-06T13:22:29;98896.75;;;6.44;100.00
141;BME280;65;48.778;9.160;2024-03-06T13:25:15;98893.22;;;6.45;100.00
141;BME280;65;48.778;9.160;2024-03-06T13:28:01;98893.28;;;6.43;100.00
141;BME280;65;48.778;9.160;2024-03-06T13:30:48;98892.63;;;6.37;100.00
141;BME280;65;48.778;9.160;2024-03-06T13:33:35;98893.50;;;6.37;100.00
141;BME280;65;48.778;9.160;2024-03-06T13:36:21;98890.69;;;6.42;100.00
141;BME280;65;48.778;9.160;2024-03-06T13:39:07;98898.56;;;6.42;100.00
141;BME280;65;48.778;9.160;2024-03-06T13:41:53;98895.09;;;6.41;100.00
141;BME280;65;48.778;9.160;2024-03-06T13:44:39;98893.16;;;6.46;100.00
141;BME280;65;48.778;9.160;2024-03-06T13:47:25;98890.53;;;6.46;100.00
141;BME280;65;48.778;9.160;2024-03-06T13:50:13;98893.97;;;6.48;100.00
141;BME280;65;48.778;9.160;2024-03-06T13:52:58;98894.81;;;6.49;100.00
141;BME280;65;48.778;9.160;2024-03-06T13:55:44;98896.47;;;6.51;100.00
141;BME280;65;48.778;9.160;2024-03-06T13:58:30;98890.19;;;6.55;100.00
141;BME280;65;48.778;9.160;2024-03-06T14:01:16;98888.84;;;6.69;100.00
141;BME280;65;48.778;9.160;2024-03-06T14:04:01;98893.59;;;6.82;100.00
141;BME280;65;48.778;9.160;2024-03-06T14:06:47;98897.88;;;6.85;100.00
141;BME280;65;48.778;9.160;2024-03-06T14:09:34;98901.31;;;6.87;100.00
141;BME280;65;48.778;9.160;2024-03-06T14:12:19;98895.69;;;6.73;100.00
141;BME280;65;48.778;9.160;2024-03-06T14:15:06;98897.31;;;6.77;100.00
141;BME280;65;48.778;9.160;2024-03-06T14:17:54;98903.34;;;6.79;100.00
141;BME280;65;48.778;9.160;2024-03-06T14:20:40;98904.84;;;6.86;100.00
141;BME280;65;48.778;9.160;2024-03-06T14:23:26;98904.72;;;6.89;100.00
141;BME280;65;48.778;9.160;2024-03-06T14:26:11;98902.03;;;6.90;100.00
141;BME280;65;48.778;9.160;2024-03-06T14:28:57;98912.56;;;6.90;100.00
141;BME280;65;48.778;9.160;2024-03-06T14:31:43;98907.97;;;6.97;100.00
141;BME280;65;48.778;9.160;2024-03-06T14:34:29;98912.41;;;6.95;100.00
141;BME280;65;48.778;9.160;2024-03-06T14:37:18;98910.72;;;6.92;100.00
141;BME280;65;48.778;9.160;2024-03-06T14:40:05;98915.34;;;6.86;100.00
141;BME280;65;48.778;9.160;2024-03-06T14:42:53;98912.84;;;6.83;100.00
141;BME280;65;48.778;9.160;2024-03-06T14:45:39;98914.66;;;6.81;100.00
141;BME280;65;48.778;9.160;2024-03-06T14:48:27;98916.50;;;6.79;100.00
141;BME280;65;48.778;9.160;2024-03-06T14:51:13;98908.09;;;6.69;100.00
141;BME280;65;48.778;9.160;2024-03-06T14:53:59;98908.94;;;6.70;100.00
141;BME280;65;48.778;9.160;2024-03-06T14:56:45;98907.22;;;6.69;100.00
141;BME280;65;48.778;9.160;2024-03-06T14:59:31;98915.81;;;6.74;100.00
141;BME280;65;48.778;9.160;2024-03-06T15:02:16;98909.53;;;6.78;100.00
141;BME280;65;48.778;9.160;2024-03-06T15:05:02;98908.66;;;6.77;100.00
141;BME280;65;48.778;9.160;2024-03-06T15:07:49;98911.13;;;6.82;100.00
141;BME280;65;48.778;9.160;2024-03-06T15:10:35;98919.97;;;6.79;100.00
141;BME280;65;48.778;9.160;2024-03-06T15:13:21;98914.09;;;6.73;100.00
141;BME280;65;48.778;9.160;2024-03-06T15:16:08;98914.09;;;6.73;100.00
141;BME280;65;48.778;9.160;2024-03-06T15:18:54;98921.38;;;6.64;100.00
141;BME280;65;48.778;9.160;2024-03-06T15:21:42;98916.25;;;6.61;100.00
141;BME280;65;48.778;9.160;2024-03-06T15:24:28;98921.50;;;6.61;100.00
141;BME280;65;48.778;9.160;2024-03-06T15:27:16;98922.34;;;6.62;100.00
141;BME280;65;48.778;9.160;2024-03-06T15:30:04;98924.13;;;6.61;100.00
141;BME280;65;48.778;9.160;2024-03-06T15:32:50;98927.56;;;6.63;100.00
141;BME280;65;48.778;9.160;2024-03-06T15:35:36;98922.47;;;6.59;100.00
141;BME280;65;48.778;9.160;2024-03-06T15:38:21;98926.97;;;6.55;100.00
141;BME280;65;48.778;9.160;2024-03-06T15:41:08;98926.84;;;6.58;100.00
141;BME280;65;48.778;9.160;2024-03-06T15:43:54;98926.00;;;6.58;100.00
141;BME280;65;48.778;9.160;2024-03-06T15:46:40;98926.06;;;6.56;100.00
141;BME280;65;48.778;9.160;2024-03-06T15:49:26;98915.50;;;6.58;100.00